Abington, Indiana
Current Conditions -  °F | °C
As of 10:53 AM on Friday 31 Oct 2014 (Local Time) from KMIE Reporting Station
Light Rain Light Rain  
Wind Chill: 33°   Ceiling: 1200
Heat Index: 41°   Visibility: 8mi
Dew Point: 37°   Wind: 14mph
Humidity: 86%   Direction: 320°NW
Pressure: 29.97"   Gusts: 24mph
Location:  39.7862°N, 85.0229°W
Report Text: KMIE 311453Z 32012G21KT 8SM -RA BKN012 OVC029 05/03 A2997 RMK AO2 SLP148 P0006 60007 T00500028 53003
Loading
Personal Weather Stations






























Interactive Weather Map
Tropical Storm Tracking
New forecast layout! Learn more

10-Day Weather Forecast

Advertisements
Track Severe Weather on mobile